Time;durP1;ratioP1;P1;durP2;ratioP2;P2;SDS_P1;SDS_P2;PMS_P1;PMS_P2;Temp;Humidity;BMP_temperature;BMP_pressure;BME280_temperature;BME280_humidity;BME280_pressure;Samples;Min_cycle;Max_cycle;Signal;HPM_P1;HPM_P2
2021/05/30 00:00:16;;;;;;;10.20;5.95;;;9.70;99.90;;;;;;5026339;28;20441;-77
2021/05/30 00:02:42;;;;;;;7.72;3.88;;;9.70;99.90;;;;;;5026773;28;20557;-76
2021/05/30 00:05:09;;;;;;;7.90;4.85;;;9.60;99.90;;;;;;5021961;28;20064;-76
2021/05/30 00:07:36;;;;;;;8.77;4.25;;;9.60;99.90;;;;;;5028865;28;20567;-78
2021/05/30 00:10:03;;;;;;;5.75;4.25;;;9.60;99.90;;;;;;5035060;28;20568;-77
2021/05/30 00:12:28;;;;;;;6.72;4.40;;;9.60;99.90;;;;;;5025252;28;20040;-77
2021/05/30 00:14:54;;;;;;;11.40;5.55;;;9.60;99.90;;;;;;5021559;28;20030;-76
2021/05/30 00:17:20;;;;;;;6.85;4.50;;;9.60;99.90;;;;;;5026289;28;20022;-78
2021/05/30 00:19:45;;;;;;;8.85;5.32;;;9.50;99.90;;;;;;5026825;28;20128;-77
2021/05/30 00:22:11;;;;;;;5.43;3.90;;;9.50;99.90;;;;;;5031963;28;20056;-77
2021/05/30 00:24:37;;;;;;;8.02;4.57;;;9.50;99.90;;;;;;5026490;28;20034;-77
2021/05/30 00:27:05;;;;;;;7.97;4.95;;;9.50;99.90;;;;;;5019231;28;20104;-77
2021/05/30 00:29:31;;;;;;;9.48;5.35;;;9.50;99.90;;;;;;5025254;28;20037;-76
2021/05/30 00:31:57;;;;;;;8.93;5.40;;;9.50;99.90;;;;;;5028804;28;20037;-77
2021/05/30 00:34:24;;;;;;;8.10;4.85;;;9.50;99.90;;;;;;5027236;28;20037;-77
2021/05/30 00:36:50;;;;;;;10.15;5.60;;;9.50;99.90;;;;;;5023697;28;20433;-78
2021/05/30 00:39:16;;;;;;;9.60;5.82;;;9.40;99.90;;;;;;5024719;28;20113;-77
2021/05/30 00:41:41;;;;;;;8.18;5.05;;;9.40;99.90;;;;;;5032216;28;20030;-77
2021/05/30 00:44:22;;;;;;;8.13;4.68;;;9.40;99.90;;;;;;5032060;28;20052;-77
2021/05/30 00:46:48;;;;;;;6.65;4.50;;;9.40;99.90;;;;;;5027022;28;20042;-77
2021/05/30 00:49:14;;;;;;;7.45;5.20;;;9.40;99.90;;;;;;5032835;28;20120;-77
2021/05/30 00:51:40;;;;;;;8.38;4.72;;;9.30;99.90;;;;;;5028495;28;20053;-77
2021/05/30 00:54:07;;;;;;;7.50;4.43;;;9.30;99.90;;;;;;5031922;28;20124;-78
2021/05/30 00:56:33;;;;;;;6.00;4.22;;;9.20;99.90;;;;;;5040365;28;20105;-77
2021/05/30 00:58:58;;;;;;;7.60;4.97;;;9.20;99.90;;;;;;5025876;28;20674;-77
2021/05/30 01:01:24;;;;;;;8.43;4.75;;;9.10;99.90;;;;;;5031117;28;20037;-77
2021/05/30 01:03:50;;;;;;;8.15;5.70;;;9.10;99.90;;;;;;5029263;28;20029;-77
2021/05/30 01:06:15;;;;;;;10.88;4.80;;;9.10;99.90;;;;;;5028352;28;20056;-77
2021/05/30 01:08:41;;;;;;;7.13;4.88;;;9.00;99.90;;;;;;5028014;28;20084;-79
2021/05/30 01:11:16;;;;;;;8.05;5.05;;;9.10;99.90;;;;;;5021851;28;20046;-78
2021/05/30 01:13:44;;;;;;;9.98;5.35;;;9.00;99.90;;;;;;5034922;28;20409;-78
2021/05/30 01:16:15;;;;;;;8.10;4.68;;;9.10;99.90;;;;;;5011835;28;20030;-78
2021/05/30 01:18:41;;;;;;;8.23;4.93;;;9.10;99.90;;;;;;5016141;28;20034;-78
2021/05/30 01:21:07;;;;;;;7.60;5.00;;;9.00;99.90;;;;;;5030348;28;20103;-78
2021/05/30 01:23:33;;;;;;;6.50;4.50;;;9.00;99.90;;;;;;5031630;28;20036;-77
2021/05/30 01:26:00;;;;;;;6.18;3.97;;;9.00;99.90;;;;;;5030541;28;20029;-78
2021/05/30 01:28:26;;;;;;;7.50;4.47;;;8.90;99.90;;;;;;5037571;28;20029;-79
2021/05/30 01:30:52;;;;;;;6.93;4.38;;;8.90;99.90;;;;;;5033526;28;20038;-78
2021/05/30 01:33:18;;;;;;;6.70;3.85;;;8.90;99.90;;;;;;5026298;28;20060;-78
2021/05/30 01:35:44;;;;;;;6.47;3.85;;;8.80;99.90;;;;;;5027875;28;20034;-78
2021/05/30 01:38:10;;;;;;;4.60;3.45;;;8.80;99.90;;;;;;5028359;28;20466;-78
2021/05/30 01:40:36;;;;;;;8.90;3.38;;;8.80;99.90;;;;;;5012563;28;20037;-77
2021/05/30 01:43:02;;;;;;;7.78;3.72;;;8.70;99.90;;;;;;5027076;28;20022;-78
2021/05/30 01:45:30;;;;;;;7.10;3.88;;;8.70;99.90;;;;;;5030213;28;20062;-77
2021/05/30 01:47:56;;;;;;;7.57;4.65;;;8.60;99.90;;;;;;5025915;28;20037;-78
2021/05/30 01:50:24;;;;;;;8.85;4.85;;;8.70;99.90;;;;;;5027303;28;20486;-78
2021/05/30 01:52:50;;;;;;;10.05;5.82;;;8.60;99.90;;;;;;5029046;28;20034;-78
2021/05/30 01:55:41;;;;;;;8.50;4.90;;;8.60;99.90;;;;;;5030934;28;20460;-77
2021/05/30 01:58:08;;;;;;;8.20;5.15;;;8.60;99.90;;;;;;5025247;28;20053;-77
2021/05/30 02:00:36;;;;;;;13.13;6.15;;;8.60;99.90;;;;;;5030579;28;20180;-78
2021/05/30 02:03:02;;;;;;;10.23;6.03;;;8.50;99.90;;;;;;5034103;28;20144;-78
2021/05/30 02:05:29;;;;;;;7.90;4.80;;;8.50;99.90;;;;;;5038488;28;20036;-78
2021/05/30 02:07:55;;;;;;;10.20;4.78;;;8.50;99.90;;;;;;5033214;28;20041;-78
2021/05/30 02:10:23;;;;;;;8.88;5.38;;;8.40;99.90;;;;;;5037473;28;20044;-78
2021/05/30 02:12:51;;;;;;;9.93;5.68;;;8.40;99.90;;;;;;5014373;28;20029;-78
2021/05/30 02:15:19;;;;;;;7.95;5.43;;;8.40;99.90;;;;;;5010825;28;20029;-78
2021/05/30 02:17:45;;;;;;;8.05;4.65;;;8.50;99.90;;;;;;5027718;28;20415;-78
2021/05/30 02:20:12;;;;;;;5.57;4.45;;;8.40;99.90;;;;;;5028154;28;20085;-78
2021/05/30 02:22:38;;;;;;;5.82;3.67;;;8.40;99.90;;;;;;5030941;28;20448;-78
2021/05/30 02:25:05;;;;;;;6.60;4.05;;;8.30;99.90;;;;;;5028736;28;20050;-77
2021/05/30 02:27:31;;;;;;;6.65;3.63;;;8.30;99.90;;;;;;5029330;28;20046;-78
2021/05/30 02:29:57;;;;;;;7.57;4.20;;;8.30;99.90;;;;;;5030175;28;20038;-79
2021/05/30 02:32:23;;;;;;;5.45;3.92;;;8.20;99.90;;;;;;5031551;28;20080;-79
2021/05/30 02:34:48;;;;;;;5.75;4.07;;;8.20;99.90;;;;;;5010193;28;20034;-77
2021/05/30 02:37:17;;;;;;;5.93;4.22;;;8.20;99.90;;;;;;5027811;28;20121;-77
2021/05/30 02:39:45;;;;;;;9.07;4.60;;;8.10;99.90;;;;;;5028419;28;20052;-78
2021/05/30 02:42:11;;;;;;;7.15;4.38;;;8.10;99.90;;;;;;5027228;28;20041;-78
2021/05/30 02:44:38;;;;;;;8.18;5.15;;;8.00;99.90;;;;;;5030776;28;20026;-78
2021/05/30 02:47:04;;;;;;;8.02;4.78;;;7.90;99.90;;;;;;5026250;28;20116;-78
2021/05/30 02:49:32;;;;;;;8.00;5.22;;;7.80;99.90;;;;;;5026998;28;20037;-78
2021/05/30 02:51:58;;;;;;;7.18;4.32;;;7.70;99.90;;;;;;5027666;28;20042;-78
2021/05/30 02:54:24;;;;;;;7.22;4.85;;;7.70;99.90;;;;;;5029065;28;20037;-78
2021/05/30 02:56:49;;;;;;;8.30;4.53;;;7.70;99.90;;;;;;5025742;28;20121;-78
2021/05/30 02:59:15;;;;;;;9.40;5.65;;;7.80;99.90;;;;;;5026464;28;20030;-79
2021/05/30 03:01:41;;;;;;;7.07;4.38;;;7.80;99.90;;;;;;5029145;28;20032;-79
2021/05/30 03:04:07;;;;;;;11.32;5.20;;;7.80;99.90;;;;;;5026627;28;20818;-77
2021/05/30 03:06:33;;;;;;;8.68;5.10;;;7.80;99.90;;;;;;5028482;28;20029;-78
2021/05/30 03:08:59;;;;;;;9.73;5.25;;;7.80;99.90;;;;;;5011025;28;20030;-78
2021/05/30 03:11:25;;;;;;;8.13;4.82;;;7.70;99.90;;;;;;5036429;28;20104;-78
2021/05/30 03:13:52;;;;;;;11.02;5.65;;;7.70;99.90;;;;;;5030656;28;20037;-77
2021/05/30 03:16:18;;;;;;;8.68;5.45;;;7.70;99.90;;;;;;5026787;28;20050;-78
2021/05/30 03:18:44;;;;;;;11.55;5.45;;;7.60;99.90;;;;;;5029297;28;20033;-78
2021/05/30 03:21:10;;;;;;;7.30;4.75;;;7.60;99.90;;;;;;5031607;28;20032;-78
2021/05/30 03:23:36;;;;;;;7.90;5.05;;;7.50;99.90;;;;;;5028038;28;20430;-77
2021/05/30 03:26:03;;;;;;;9.32;4.60;;;7.50;99.90;;;;;;5020049;28;20117;-78
2021/05/30 03:28:28;;;;;;;9.70;5.80;;;7.40;99.90;;;;;;5020697;28;20041;-78
2021/05/30 03:30:54;;;;;;;10.80;5.40;;;7.40;99.90;;;;;;5021234;28;20104;-78
2021/05/30 03:33:20;;;;;;;10.32;5.43;;;7.30;99.90;;;;;;5019337;28;20030;-76
2021/05/30 03:35:46;;;;;;;7.38;4.88;;;7.30;99.90;;;;;;5023820;28;20059;-77
2021/05/30 03:38:14;;;;;;;8.70;5.45;;;7.40;99.90;;;;;;5022139;28;20636;-78
2021/05/30 03:41:00;;;;;;;8.80;5.13;;;7.40;99.90;;;;;;5021898;28;20034;-77
2021/05/30 03:43:26;;;;;;;7.72;4.32;;;7.40;99.90;;;;;;5025938;28;20038;-75
2021/05/30 03:45:52;;;;;;;6.07;4.38;;;7.40;99.90;;;;;;5031398;28;20029;-78
2021/05/30 03:48:18;;;;;;;6.50;4.22;;;7.50;99.90;;;;;;5008062;28;20037;-78
2021/05/30 03:50:43;;;;;;;5.43;3.75;;;7.50;99.90;;;;;;5026634;28;20109;-79
2021/05/30 03:53:09;;;;;;;7.03;4.10;;;7.60;99.90;;;;;;5039495;28;20447;-78
2021/05/30 03:55:35;;;;;;;5.47;3.80;;;7.50;99.90;;;;;;5027019;28;20120;-78
2021/05/30 03:58:01;;;;;;;5.55;3.70;;;7.60;99.90;;;;;;5031845;28;20025;-76
2021/05/30 04:00:27;;;;;;;5.25;3.80;;;7.60;99.90;;;;;;5026817;28;20532;-77
2021/05/30 04:02:53;;;;;;;6.45;3.47;;;7.60;99.90;;;;;;5033342;28;20025;-77
2021/05/30 04:05:18;;;;;;;6.00;3.67;;;7.60;99.90;;;;;;5026436;28;20112;-78
2021/05/30 04:07:44;;;;;;;4.97;3.75;;;7.60;99.90;;;;;;5008224;28;20044;-78
2021/05/30 04:10:12;;;;;;;7.20;4.55;;;7.70;99.90;;;;;;5020033;28;20033;-77
2021/05/30 04:12:39;;;;;;;5.85;4.28;;;7.70;99.90;;;;;;5025536;28;20059;-77
2021/05/30 04:15:07;;;;;;;6.60;4.07;;;7.80;99.90;;;;;;5026228;28;20072;-77
2021/05/30 04:17:33;;;;;;;9.13;4.32;;;7.80;99.90;;;;;;5023435;28;20038;-76
2021/05/30 04:19:59;;;;;;;7.55;3.78;;;7.90;99.90;;;;;;5028932;28;20556;-78
2021/05/30 04:22:25;;;;;;;8.23;4.47;;;7.90;99.90;;;;;;5013668;28;20540;-76
2021/05/30 04:24:51;;;;;;;9.45;4.85;;;7.90;99.90;;;;;;5028003;28;20076;-77
2021/05/30 04:27:17;;;;;;;8.27;4.78;;;8.00;99.90;;;;;;5025526;28;20665;-77
2021/05/30 04:29:44;;;;;;;11.90;4.93;;;8.00;99.90;;;;;;5035848;28;20029;-78
2021/05/30 04:32:09;;;;;;;7.55;4.35;;;8.00;99.90;;;;;;5036244;28;20437;-76
2021/05/30 04:34:35;;;;;;;6.50;4.45;;;8.10;99.90;;;;;;5036012;28;20034;-77
2021/05/30 04:37:01;;;;;;;7.40;4.82;;;8.20;99.90;;;;;;5030661;28;20022;-77
2021/05/30 04:39:30;;;;;;;7.43;4.60;;;8.20;99.90;;;;;;5037186;28;20029;-77
2021/05/30 04:41:57;;;;;;;7.50;4.80;;;8.20;99.90;;;;;;5038056;28;20036;-77
2021/05/30 04:44:22;;;;;;;9.02;4.80;;;8.30;99.90;;;;;;5037198;28;20432;-77
2021/05/30 04:46:48;;;;;;;9.88;5.32;;;8.30;99.90;;;;;;5037314;28;20025;-77
2021/05/30 04:49:14;;;;;;;7.70;4.22;;;8.40;99.90;;;;;;5039945;28;20055;-76
2021/05/30 04:51:40;;;;;;;7.72;4.68;;;8.50;99.90;;;;;;5037425;28;20026;-77
2021/05/30 04:54:06;;;;;;;9.27;5.15;;;8.50;99.90;;;;;;5038571;28;20041;-78
2021/05/30 04:56:32;;;;;;;8.80;5.45;;;8.60;99.90;;;;;;5036448;28;20034;-78
2021/05/30 04:58:58;;;;;;;8.20;4.93;;;8.60;99.90;;;;;;5036097;28;20072;-78
2021/05/30 05:01:23;;;;;;;10.15;5.25;;;8.70;99.90;;;;;;5034748;28;20048;-78
2021/05/30 05:03:50;;;;;;;9.02;4.80;;;8.80;99.90;;;;;;5038368;28;20029;-77
2021/05/30 05:06:16;;;;;;;8.57;5.00;;;8.90;99.90;;;;;;5036601;28;20049;-78
2021/05/30 05:08:43;;;;;;;9.05;5.78;;;9.00;99.90;;;;;;5034540;28;20041;-78
2021/05/30 05:11:09;;;;;;;10.98;5.40;;;9.10;99.90;;;;;;5037033;28;20033;-78
2021/05/30 05:13:36;;;;;;;8.95;5.32;;;9.20;99.90;;;;;;5036893;28;20053;-76
2021/05/30 05:16:02;;;;;;;8.52;5.63;;;9.30;99.90;;;;;;5033196;28;20167;-77
2021/05/30 05:18:32;;;;;;;7.75;4.95;;;9.40;99.90;;;;;;5037657;28;20026;-78
2021/05/30 05:20:58;;;;;;;6.85;4.70;;;9.40;99.90;;;;;;5035065;28;20126;-77
2021/05/30 05:23:26;;;;;;;8.85;4.80;;;9.60;99.90;;;;;;5020729;28;20028;-78
2021/05/30 05:25:57;;;;;;;7.95;4.75;;;9.70;99.90;;;;;;5036878;28;20072;-77
2021/05/30 05:28:23;;;;;;;10.27;5.60;;;10.00;99.90;;;;;;5034729;28;20474;-78
2021/05/30 05:30:50;;;;;;;8.82;5.07;;;10.50;99.90;;;;;;5038588;28;20116;-78
2021/05/30 05:33:15;;;;;;;10.32;5.07;;;11.10;99.90;;;;;;5038608;28;20053;-77
2021/05/30 05:35:42;;;;;;;8.88;5.18;;;11.80;99.90;;;;;;5037507;28;20095;-77
2021/05/30 05:38:09;;;;;;;6.15;4.20;;;12.40;99.90;;;;;;5036570;28;20025;-78
2021/05/30 05:40:36;;;;;;;7.65;4.28;;;13.00;99.90;;;;;;5036660;28;20029;-78
2021/05/30 05:43:01;;;;;;;6.07;4.20;;;13.60;99.90;;;;;;5036740;28;20548;-78
2021/05/30 05:45:27;;;;;;;7.32;4.57;;;14.10;99.90;;;;;;5036002;28;20033;-78
2021/05/30 05:47:53;;;;;;;6.13;3.97;;;14.50;99.90;;;;;;5032490;28;20036;-78
2021/05/30 05:50:21;;;;;;;6.15;3.83;;;14.90;99.90;;;;;;5037713;28;20029;-77
2021/05/30 05:52:48;;;;;;;4.97;3.70;;;15.20;99.90;;;;;;5031847;28;20494;-78
2021/05/30 05:55:14;;;;;;;5.63;3.97;;;15.50;99.90;;;;;;5035311;28;20045;-78
2021/05/30 05:57:43;;;;;;;5.97;3.80;;;15.80;99.90;;;;;;5033307;28;20091;-78
2021/05/30 06:00:14;;;;;;;7.07;4.13;;;16.00;99.90;;;;;;5014777;28;20047;-76
2021/05/30 06:02:42;;;;;;;6.63;3.80;;;16.20;99.90;;;;;;5035415;28;20040;-77
2021/05/30 06:05:08;;;;;;;7.50;3.97;;;16.40;99.90;;;;;;5035772;28;20036;-78
2021/05/30 06:07:36;;;;;;;9.00;4.00;;;16.70;99.90;;;;;;5018499;28;20149;-78
2021/05/30 06:10:03;;;;;;;6.03;4.05;;;17.00;99.90;;;;;;5019552;28;20034;-78
2021/05/30 06:12:28;;;;;;;5.47;3.30;;;17.50;99.90;;;;;;5037056;28;20037;-78
2021/05/30 06:14:54;;;;;;;6.72;4.15;;;17.80;99.90;;;;;;5034063;28;20048;-78
2021/05/30 06:17:20;;;;;;;4.10;3.17;;;18.20;98.60;;;;;;5035908;28;20040;-79
2021/05/30 06:19:45;;;;;;;4.75;3.55;;;18.60;95.90;;;;;;5051695;28;20033;-78
2021/05/30 06:22:12;;;;;;;5.15;3.33;;;19.10;94.60;;;;;;5038860;28;20029;-78
2021/05/30 06:24:38;;;;;;;7.13;4.13;;;19.60;92.10;;;;;;5033595;28;20060;-78
2021/05/30 06:27:04;;;;;;;4.97;4.05;;;20.00;90.20;;;;;;5033168;28;20037;-79
2021/05/30 06:29:30;;;;;;;4.47;3.65;;;20.50;83.20;;;;;;5034931;28;20044;-79
2021/05/30 06:31:56;;;;;;;4.75;3.30;;;20.70;76.20;;;;;;5035630;28;20037;-78
2021/05/30 06:34:22;;;;;;;4.60;3.22;;;20.80;76.40;;;;;;5031105;28;20514;-78
2021/05/30 06:36:50;;;;;;;5.90;3.72;;;21.00;75.30;;;;;;5033576;28;20049;-77
2021/05/30 06:39:16;;;;;;;4.97;2.83;;;21.10;69.80;;;;;;5035043;28;20426;-79
2021/05/30 06:41:42;;;;;;;5.80;3.60;;;21.30;70.50;;;;;;5035427;28;20024;-78
2021/05/30 06:44:07;;;;;;;5.95;3.78;;;21.60;68.30;;;;;;5035030;28;20414;-77
2021/05/30 06:46:34;;;;;;;5.38;3.25;;;21.70;65.20;;;;;;5035810;28;20025;-79
2021/05/30 06:49:00;;;;;;;4.75;3.00;;;21.70;66.90;;;;;;5036271;28;20025;-78
2021/05/30 06:51:29;;;;;;;5.13;2.97;;;22.10;65.70;;;;;;5035280;28;20186;-78
2021/05/30 06:53:56;;;;;;;3.72;2.72;;;22.50;62.10;;;;;;5034516;28;20083;-79
2021/05/30 06:56:23;;;;;;;6.88;3.28;;;22.70;59.50;;;;;;5033690;28;20021;-79
2021/05/30 06:58:48;;;;;;;6.47;3.38;;;22.60;58.60;;;;;;5031014;28;20481;-78
2021/05/30 07:01:19;;;;;;;3.88;2.80;;;22.70;57.90;;;;;;5035336;28;20034;-77
2021/05/30 07:03:49;;;;;;;3.53;3.20;;;22.90;57.50;;;;;;5033603;28;20151;-79
2021/05/30 07:06:15;;;;;;;5.50;3.17;;;22.90;55.70;;;;;;5033576;28;20061;-77
2021/05/30 07:08:42;;;;;;;5.50;3.10;;;22.80;56.80;;;;;;5031633;28;20037;-79
2021/05/30 07:11:08;;;;;;;4.15;3.13;;;22.90;56.20;;;;;;5032906;28;20039;-79
2021/05/30 07:13:34;;;;;;;3.90;2.90;;;22.90;53.90;;;;;;5017880;28;20030;-78
2021/05/30 07:15:59;;;;;;;3.03;2.42;;;22.70;56.10;;;;;;5031176;28;20104;-78
2021/05/30 07:18:25;;;;;;;3.15;2.85;;;22.50;53.80;;;;;;5032264;28;20032;-78
2021/05/30 07:20:53;;;;;;;4.65;2.90;;;22.40;53.80;;;;;;5028341;28;20022;-77
2021/05/30 07:23:21;;;;;;;3.35;2.80;;;22.30;54.80;;;;;;5032106;28;20128;-78
2021/05/30 07:25:47;;;;;;;3.58;2.72;;;22.20;54.80;;;;;;5013877;28;20040;-79
2021/05/30 07:28:13;;;;;;;3.60;3.17;;;22.00;55.10;;;;;;5031987;28;20116;-78
2021/05/30 07:30:39;;;;;;;5.57;3.58;;;21.90;53.50;;;;;;5032164;28;20029;-77
2021/05/30 07:33:06;;;;;;;3.80;2.47;;;21.70;54.80;;;;;;5030304;28;20026;-78
2021/05/30 07:35:33;;;;;;;3.63;3.03;;;21.70;57.30;;;;;;5028961;28;20048;-78
2021/05/30 07:37:59;;;;;;;4.95;2.97;;;22.00;55.90;;;;;;5030052;28;20504;-78
2021/05/30 07:40:25;;;;;;;4.40;2.97;;;22.40;55.40;;;;;;5026860;28;20029;-78
2021/05/30 07:42:51;;;;;;;5.18;3.63;;;22.70;53.70;;;;;;5014606;28;20108;-78
2021/05/30 07:45:18;;;;;;;6.03;3.10;;;22.70;54.60;;;;;;5030421;28;20076;-78
2021/05/30 07:47:45;;;;;;;3.95;2.72;;;22.70;53.80;;;;;;5030231;28;20059;-78
2021/05/30 07:50:12;;;;;;;2.63;2.42;;;22.00;52.40;;;;;;5030501;28;20041;-79
2021/05/30 07:52:39;;;;;;;5.57;3.10;;;21.70;54.20;;;;;;5033223;28;20041;-78
2021/05/30 07:55:06;;;;;;;2.63;2.42;;;21.80;54.70;;;;;;5027214;28;20033;-78
2021/05/30 07:57:32;;;;;;;4.82;2.50;;;22.00;52.60;;;;;;5027756;28;20521;-78
2021/05/30 07:59:58;;;;;;;3.72;2.53;;;21.80;53.30;;;;;;5030237;28;20025;-78
2021/05/30 08:02:24;;;;;;;5.10;2.70;;;21.80;53.30;;;;;;5029308;28;20486;-78
2021/05/30 08:04:50;;;;;;;2.40;2.13;;;21.70;52.00;;;;;;5020765;28;20088;-77
2021/05/30 08:07:16;;;;;;;4.35;2.00;;;21.40;52.10;;;;;;5010933;28;20037;-77
2021/05/30 08:09:42;;;;;;;3.50;2.10;;;21.30;52.00;;;;;;5027958;28;20037;-78
2021/05/30 08:12:08;;;;;;;2.75;2.15;;;21.20;52.30;;;;;;5028866;28;20176;-78
2021/05/30 08:14:36;;;;;;;2.95;2.13;;;21.20;54.20;;;;;;5029927;28;20029;-78
2021/05/30 08:17:03;;;;;;;2.97;1.83;;;21.20;52.90;;;;;;5030467;28;20049;-78
2021/05/30 08:19:29;;;;;;;2.65;2.00;;;20.90;51.50;;;;;;5028883;28;20037;-77
2021/05/30 08:21:54;;;;;;;5.20;2.15;;;20.50;52.40;;;;;;5011617;28;20425;-77
2021/05/30 08:24:20;;;;;;;2.20;1.90;;;20.10;53.10;;;;;;5028011;28;20049;-78
2021/05/30 08:26:46;;;;;;;3.65;2.40;;;19.80;53.60;;;;;;5030148;28;20137;-78
2021/05/30 08:29:11;;;;;;;4.18;2.22;;;19.40;54.00;;;;;;5028587;28;20072;-77
2021/05/30 08:31:37;;;;;;;4.93;1.60;;;19.10;54.50;;;;;;5032727;28;20030;-77
2021/05/30 08:34:03;;;;;;;4.05;1.95;;;18.70;55.90;;;;;;5013961;28;20124;-77
2021/05/30 08:36:28;;;;;;;2.08;1.88;;;18.50;57.10;;;;;;5031532;28;20037;-79
2021/05/30 08:38:54;;;;;;;3.75;2.05;;;18.30;57.30;;;;;;5032684;28;20044;-79
2021/05/30 08:41:20;;;;;;;3.88;2.08;;;18.10;56.80;;;;;;5029770;28;20029;-78
2021/05/30 08:43:46;;;;;;;3.47;2.33;;;18.10;58.90;;;;;;5028590;28;20033;-77
2021/05/30 08:46:13;;;;;;;3.25;2.00;;;17.90;57.20;;;;;;5030323;28;20048;-78
2021/05/30 08:48:39;;;;;;;2.33;1.70;;;17.90;57.30;;;;;;5032250;28;20021;-79
2021/05/30 08:51:05;;;;;;;2.22;1.52;;;18.00;57.70;;;;;;5010745;28;20049;-77
2021/05/30 08:53:34;;;;;;;3.25;1.58;;;18.30;56.20;;;;;;5034849;28;20033;-78
2021/05/30 08:56:01;;;;;;;4.78;1.80;;;18.60;54.70;;;;;;5031383;28;20108;-79
2021/05/30 08:58:42;;;;;;;1.02;0.93;;;18.90;51.10;;;;;;5031659;28;20041;-79
2021/05/30 09:01:16;;;;;;;1.27;1.15;;;18.80;51.60;;;;;;5028457;28;20048;-77
2021/05/30 09:03:51;;;;;;;2.70;1.42;;;18.80;50.70;;;;;;5026859;28;20038;-78
2021/05/30 09:06:18;;;;;;;1.40;1.30;;;18.90;52.10;;;;;;5025110;28;20056;-78
2021/05/30 09:08:44;;;;;;;2.10;1.42;;;19.00;51.00;;;;;;5023562;28;20445;-76
2021/05/30 09:11:11;;;;;;;1.85;1.10;;;19.10;53.50;;;;;;5028770;28;20081;-77
2021/05/30 09:14:01;;;;;;;3.40;1.75;;;19.00;54.50;;;;;;5027816;28;20034;-76
2021/05/30 09:16:47;;;;;;;2.15;1.20;;;18.90;52.40;;;;;;5056121;28;20550;-78
2021/05/30 09:19:45;;;;;;;1.55;1.13;;;18.60;52.20;;;;;;5026946;28;20045;-77
2021/05/30 09:22:22;;;;;;;1.95;1.20;;;18.20;52.60;;;;;;5025068;28;21251;-76
2021/05/30 09:24:51;;;;;;;1.70;1.42;;;18.00;53.30;;;;;;5029653;28;20116;-79
2021/05/30 09:27:21;;;;;;;2.40;1.45;;;17.70;54.80;;;;;;5029741;28;20040;-77
2021/05/30 09:30:18;;;;;;;2.28;1.30;;;17.50;53.60;;;;;;5031406;28;20030;-78
2021/05/30 09:32:58;;;;;;;1.75;1.38;;;17.40;54.10;;;;;;5031321;28;20026;-78
2021/05/30 09:35:26;;;;;;;2.70;1.98;;;17.20;52.20;;;;;;5029804;28;20512;-77
2021/05/30 09:38:00;;;;;;;3.50;1.77;;;17.10;55.40;;;;;;5012740;28;20026;-78
2021/05/30 09:40:42;;;;;;;2.05;1.30;;;17.10;56.90;;;;;;5028399;28;20532;-77
2021/05/30 09:43:28;;;;;;;2.13;1.35;;;17.10;54.80;;;;;;5029537;28;20014;-78
2021/05/30 09:46:12;;;;;;;2.38;1.48;;;17.00;55.10;;;;;;5029683;28;20536;-79
2021/05/30 09:48:59;;;;;;;2.90;1.52;;;16.90;52.80;;;;;;5029372;28;20549;-76
2021/05/30 09:51:30;;;;;;;1.65;1.35;;;16.70;54.30;;;;;;5007116;28;20017;-78
2021/05/30 09:54:01;;;;;;;2.70;1.27;;;16.60;55.80;;;;;;5024608;28;20061;-78
2021/05/30 09:56:41;;;;;;;3.83;1.42;;;16.60;54.80;;;;;;5026268;28;20554;-77
2021/05/30 09:59:14;;;;;;;2.90;1.70;;;16.50;57.10;;;;;;5026615;28;20113;-78
2021/05/30 10:01:52;;;;;;;1.67;1.30;;;16.50;55.40;;;;;;5031630;28;20025;-78
2021/05/30 10:04:19;;;;;;;4.70;1.52;;;16.50;54.10;;;;;;5029886;28;20383;-79
2021/05/30 10:06:45;;;;;;;3.53;1.25;;;16.50;55.40;;;;;;5026366;28;20513;-78
2021/05/30 10:09:12;;;;;;;2.97;2.05;;;16.60;56.00;;;;;;5031658;28;20096;-77
2021/05/30 10:11:39;;;;;;;1.73;1.50;;;16.60;55.20;;;;;;5030714;28;20613;-79
2021/05/30 10:14:05;;;;;;;2.58;1.67;;;16.60;56.50;;;;;;5012164;28;20029;-77
2021/05/30 10:16:32;;;;;;;3.08;1.50;;;16.60;56.00;;;;;;5031969;28;20155;-77
2021/05/30 10:19:08;;;;;;;1.65;1.55;;;16.60;56.00;;;;;;5032952;28;20030;-78
2021/05/30 10:21:33;;;;;;;;;;;16.50;56.00;;;;;;5030918;28;20048;-80
2021/05/30 10:23:59;;;;;;;1.75;1.50;;;16.50;53.20;;;;;;5028629;28;20018;-79
2021/05/30 10:26:25;;;;;;;2.60;1.52;;;16.40;56.70;;;;;;5011335;28;20091;-78
2021/05/30 10:28:51;;;;;;;3.28;1.63;;;16.30;55.50;;;;;;5030465;28;20650;-77
2021/05/30 10:31:26;;;;;;;1.33;1.05;;;16.30;57.60;;;;;;5028487;28;20021;-77
2021/05/30 10:34:10;;;;;;;2.65;1.48;;;16.30;57.50;;;;;;5028799;28;20025;-78
2021/05/30 10:36:40;;;;;;;1.77;1.35;;;16.40;57.50;;;;;;5029818;28;20022;-78
2021/05/30 10:39:32;;;;;;;1.60;1.38;;;16.50;55.50;;;;;;5023694;28;20045;-76
2021/05/30 10:42:25;;;;;;;1.70;1.15;;;16.60;54.10;;;;;;5027476;28;20370;-75
2021/05/30 10:45:02;;;;;;;3.28;1.60;;;16.50;53.10;;;;;;5026974;28;20034;-76
2021/05/30 10:47:44;;;;;;;2.58;1.42;;;16.60;52.70;;;;;;5025789;28;20548;-78
2021/05/30 10:50:15;;;;;;;2.10;1.10;;;16.60;55.30;;;;;;5045388;28;20033;-77
2021/05/30 10:52:42;;;;;;;1.63;1.40;;;16.70;55.90;;;;;;5029032;28;20048;-79
2021/05/30 10:55:11;;;;;;;1.45;1.33;;;16.60;53.80;;;;;;5011485;28;20022;-79
2021/05/30 10:57:38;;;;;;;5.80;1.75;;;16.60;53.70;;;;;;5025284;28;20432;-79
2021/05/30 11:00:24;;;;;;;4.53;2.05;;;16.60;53.60;;;;;;5027082;28;20034;-79
2021/05/30 11:03:03;;;;;;;2.03;1.38;;;16.50;54.40;;;;;;5027371;28;20027;-76
2021/05/30 11:05:55;;;;;;;4.40;1.23;;;16.60;54.60;;;;;;5026710;28;20061;-78
2021/05/30 11:08:30;;;;;;;3.17;1.38;;;16.80;55.20;;;;;;5022957;28;20033;-77
2021/05/30 11:11:18;;;;;;;1.92;1.23;;;16.90;55.90;;;;;;5026426;28;20083;-77
2021/05/30 11:13:49;;;;;;;1.73;1.13;;;16.90;54.00;;;;;;5026754;28;20092;-78
2021/05/30 11:16:17;;;;;;;2.22;1.38;;;17.00;55.40;;;;;;5027634;28;20406;-77
2021/05/30 11:18:43;;;;;;;1.52;1.42;;;17.10;56.10;;;;;;5029013;28;20025;-79
2021/05/30 11:21:09;;;;;;;2.85;1.50;;;17.10;54.20;;;;;;5029850;28;20120;-79
2021/05/30 11:23:35;;;;;;;1.27;1.05;;;17.10;55.40;;;;;;5029144;28;20017;-77
2021/05/30 11:26:01;;;;;;;1.58;1.13;;;17.20;56.80;;;;;;5029228;28;20492;-79
2021/05/30 11:28:28;;;;;;;2.17;1.40;;;17.30;54.70;;;;;;5029149;28;20039;-77
2021/05/30 11:31:08;;;;;;;3.88;1.23;;;17.50;55.40;;;;;;5028888;28;20043;-79
2021/05/30 11:33:40;;;;;;;1.75;1.35;;;17.70;52.30;;;;;;5021892;28;20064;-78
2021/05/30 11:36:10;;;;;;;2.60;1.30;;;17.80;56.00;;;;;;5026243;28;20033;-79
2021/05/30 11:38:53;;;;;;;1.10;1.00;;;17.90;54.50;;;;;;5012428;28;20037;-78
2021/05/30 11:41:32;;;;;;;5.88;2.05;;;18.10;54.60;;;;;;5024132;28;20478;-78
2021/05/30 11:44:01;;;;;;;1.55;1.00;;;18.20;55.40;;;;;;5023393;28;20056;-80
2021/05/30 11:46:31;;;;;;;3.10;1.30;;;18.50;55.90;;;;;;5012446;28;20128;-77
2021/05/30 11:49:07;;;;;;;1.23;1.08;;;18.50;52.20;;;;;;5021474;28;20033;-79
2021/05/30 11:51:48;;;;;;;2.40;1.48;;;18.50;53.90;;;;;;5012205;28;20043;-79
2021/05/30 11:54:14;;;;;;;1.60;1.13;;;18.50;53.90;;;;;;5026805;28;20025;-78
2021/05/30 11:56:42;;;;;;;2.55;1.20;;;18.60;52.60;;;;;;5028121;28;20029;-79
2021/05/30 11:59:08;;;;;;;2.00;0.90;;;18.70;52.20;;;;;;5028875;28;20087;-78
2021/05/30 12:01:51;;;;;;;0.93;0.93;;;18.90;53.30;;;;;;5027437;28;20116;-77
2021/05/30 12:04:37;;;;;;;1.90;1.00;;;19.10;51.70;;;;;;5027700;28;20409;-78
2021/05/30 12:07:06;;;;;;;4.10;1.10;;;19.10;49.50;;;;;;5023844;28;20053;-79
2021/05/30 12:09:50;;;;;;;1.50;1.13;;;19.10;50.20;;;;;;5028725;28;20076;-78
2021/05/30 12:12:29;;;;;;;3.20;0.98;;;19.10;46.20;;;;;;5021683;28;20065;-82
2021/05/30 12:15:07;;;;;;;1.30;1.20;;;18.80;50.10;;;;;;5022169;28;20042;-80
2021/05/30 12:17:34;;;;;;;2.97;1.02;;;19.00;46.50;;;;;;5028179;28;20060;-76
2021/05/30 12:19:59;;;;;;;2.25;1.20;;;19.10;49.00;;;;;;5028723;28;20075;-78
2021/05/30 12:22:28;;;;;;;1.20;1.10;;;19.30;47.20;;;;;;5025360;28;20030;-80
2021/05/30 12:25:07;;;;;;;1.55;0.90;;;19.20;47.80;;;;;;5026800;28;20587;-76
2021/05/30 12:27:33;;;;;;;1.33;1.15;;;19.50;49.20;;;;;;5028765;28;20033;-78
2021/05/30 12:29:58;;;;;;;1.10;0.90;;;19.70;50.20;;;;;;5030012;28;20057;-78
2021/05/30 12:32:24;;;;;;;1.13;0.90;;;20.10;46.90;;;;;;5027980;28;20512;-79
2021/05/30 12:34:50;;;;;;;1.88;1.17;;;20.40;48.80;;;;;;5030567;28;20129;-77
2021/05/30 12:37:17;;;;;;;1.95;1.00;;;20.40;44.80;;;;;;5033931;28;20026;-80
2021/05/30 12:39:43;;;;;;;1.40;1.05;;;20.60;46.80;;;;;;5027734;28;20054;-84
2021/05/30 12:42:12;;;;;;;1.40;1.10;;;21.00;46.40;;;;;;4994942;28;20030;-78
2021/05/30 12:44:43;;;;;;;1.50;1.20;;;21.20;47.00;;;;;;5025567;28;20037;-79
2021/05/30 12:47:15;;;;;;;1.20;1.10;;;21.40;46.10;;;;;;5006033;28;20052;-79
2021/05/30 12:49:59;;;;;;;0.90;0.90;;;21.20;44.30;;;;;;5033871;28;20037;-80
2021/05/30 12:52:26;;;;;;;3.45;1.15;;;21.40;46.60;;;;;;5032276;28;20057;-77
2021/05/30 12:55:04;;;;;;;2.33;0.90;;;21.40;43.40;;;;;;5035705;28;20041;-78
2021/05/30 12:57:32;;;;;;;1.85;1.10;;;21.10;42.70;;;;;;5032812;28;20390;-78